Lamont, Mississippi
Current Conditions -  °F | °C
As of 4:53 PM on Thursday 23 Oct 2014 (Local Time) from KGLH Reporting Station
Clear Clear  
Wind Chill: 61°   Ceiling: Unl
Heat Index: 61°   Visibility: 10mi
Dew Point: 47°   Wind: 8mph
Humidity: 60%   Direction: 350°N
Pressure: 30.11"   Gusts: NA
Location:  33.2777°N, 90.9989°W
Report Text: KGLH 232153Z AUTO 35007KT 10SM CLR 16/08 A3011 RMK AO2 SLP206 T01610083
Loading
Personal Weather Stations






























Interactive Weather Map
Tropical Storm Tracking
New forecast layout! Learn more

10-Day Weather Forecast

Advertisements
Track Severe Weather on mobile